sensor_id;sensor_type;location;lat;lon;timestamp;pressure;altitude;pressure_sealevel;temperature;humidity
75788;BME280;64406;50.024;14.492;2024-02-14T00:00:12;98420.19;;;-0.05;100.00
75788;BME280;64406;50.024;14.492;2024-02-14T00:03:00;98427.50;;;-0.07;100.00
75788;BME280;64406;50.024;14.492;2024-02-14T00:05:27;98431.59;;;-0.05;100.00
75788;BME280;64406;50.024;14.492;2024-02-14T00:07:54;98437.09;;;-0.13;100.00
75788;BME280;64406;50.024;14.492;2024-02-14T00:10:20;98442.78;;;-0.16;100.00
75788;BME280;64406;50.024;14.492;2024-02-14T00:12:45;98444.63;;;-0.23;100.00
75788;BME280;64406;50.024;14.492;2024-02-14T00:15:12;98441.38;;;-0.32;100.00
75788;BME280;64406;50.024;14.492;2024-02-14T00:17:38;98449.31;;;-0.32;100.00
75788;BME280;64406;50.024;14.492;2024-02-14T00:20:04;98445.22;;;-0.21;100.00
75788;BME280;64406;50.024;14.492;2024-02-14T00:22:31;98444.41;;;-0.15;100.00
75788;BME280;64406;50.024;14.492;2024-02-14T00:24:57;98444.41;;;-0.02;100.00
75788;BME280;64406;50.024;14.492;2024-02-14T00:27:22;98451.97;;;-0.05;100.00
75788;BME280;64406;50.024;14.492;2024-02-14T00:29:48;98449.91;;;0.04;100.00
75788;BME280;64406;50.024;14.492;2024-02-14T00:32:13;98447.47;;;0.02;100.00
75788;BME280;64406;50.024;14.492;2024-02-14T00:34:39;98449.09;;;0.03;100.00
75788;BME280;64406;50.024;14.492;2024-02-14T00:37:05;98448.28;;;0.16;99.86
75788;BME280;64406;50.024;14.492;2024-02-14T00:39:30;98454.38;;;0.16;99.34
75788;BME280;64406;50.024;14.492;2024-02-14T00:41:56;98457.03;;;0.16;99.64
75788;BME280;64406;50.024;14.492;2024-02-14T00:44:22;98452.75;;;0.22;99.31
75788;BME280;64406;50.024;14.492;2024-02-14T00:46:47;98452.53;;;0.17;99.46
75788;BME280;64406;50.024;14.492;2024-02-14T00:49:16;98440.91;;;0.18;99.55
75788;BME280;64406;50.024;14.492;2024-02-14T00:51:41;98456.00;;;0.17;99.17
75788;BME280;64406;50.024;14.492;2024-02-14T00:54:07;98460.28;;;0.12;99.39
75788;BME280;64406;50.024;14.492;2024-02-14T00:56:33;98457.84;;;0.23;99.18
75788;BME280;64406;50.024;14.492;2024-02-14T00:58:59;98457.44;;;0.26;99.20
75788;BME280;64406;50.024;14.492;2024-02-14T01:01:25;98463.72;;;0.25;98.88
75788;BME280;64406;50.024;14.492;2024-02-14T01:03:51;98463.53;;;0.27;98.89
75788;BME280;64406;50.024;14.492;2024-02-14T01:06:16;98459.44;;;0.31;98.41
75788;BME280;64406;50.024;14.492;2024-02-14T01:08:44;98458.41;;;0.39;98.42
75788;BME280;64406;50.024;14.492;2024-02-14T01:11:09;98452.72;;;0.35;98.22
75788;BME280;64406;50.024;14.492;2024-02-14T01:13:35;98454.97;;;0.25;99.10
75788;BME280;64406;50.024;14.492;2024-02-14T01:16:02;98449.28;;;0.15;99.18
75788;BME280;64406;50.024;14.492;2024-02-14T01:18:30;98447.47;;;0.09;99.73
75788;BME280;64406;50.024;14.492;2024-02-14T01:20:55;98437.47;;;0.17;99.31
75788;BME280;64406;50.024;14.492;2024-02-14T01:23:21;98440.91;;;0.18;99.59
75788;BME280;64406;50.024;14.492;2024-02-14T01:25:46;98441.72;;;0.25;99.78
75788;BME280;64406;50.024;14.492;2024-02-14T01:28:12;98438.47;;;0.30;99.43
75788;BME280;64406;50.024;14.492;2024-02-14T01:30:37;98433.13;;;0.43;98.91
75788;BME280;64406;50.024;14.492;2024-02-14T01:33:03;98439.88;;;0.32;99.16
75788;BME280;64406;50.024;14.492;2024-02-14T01:35:30;98438.66;;;0.41;98.79
75788;BME280;64406;50.024;14.492;2024-02-14T01:37:55;98438.00;;;0.39;99.03
75788;BME280;64406;50.024;14.492;2024-02-14T01:40:21;98436.81;;;0.35;99.03
75788;BME280;64406;50.024;14.492;2024-02-14T01:42:47;98439.69;;;0.27;99.46
75788;BME280;64406;50.024;14.492;2024-02-14T01:45:13;98442.38;;;0.20;99.98
75788;BME280;64406;50.024;14.492;2024-02-14T01:47:38;98443.78;;;0.23;100.00
75788;BME280;64406;50.024;14.492;2024-02-14T01:50:08;98446.84;;;0.20;100.00
75788;BME280;64406;50.024;14.492;2024-02-14T01:52:38;98442.72;;;0.31;100.00
75788;BME280;64406;50.024;14.492;2024-02-14T01:55:05;98438.28;;;0.18;100.00
75788;BME280;64406;50.024;14.492;2024-02-14T01:57:33;98435.22;;;0.21;100.00
75788;BME280;64406;50.024;14.492;2024-02-14T02:00:00;98427.47;;;0.19;100.00
75788;BME280;64406;50.024;14.492;2024-02-14T02:02:34;98425.44;;;0.21;100.00
75788;BME280;64406;50.024;14.492;2024-02-14T02:05:02;98423.56;;;0.35;100.00
75788;BME280;64406;50.024;14.492;2024-02-14T02:07:28;98422.72;;;0.48;100.00
75788;BME280;64406;50.024;14.492;2024-02-14T02:09:55;98424.94;;;0.51;99.56
75788;BME280;64406;50.024;14.492;2024-02-14T02:12:21;98417.41;;;0.54;99.48
75788;BME280;64406;50.024;14.492;2024-02-14T02:14:47;98416.94;;;0.64;98.61
75788;BME280;64406;50.024;14.492;2024-02-14T02:17:12;98417.91;;;0.76;98.11
75788;BME280;64406;50.024;14.492;2024-02-14T02:19:38;98420.75;;;0.81;97.57
75788;BME280;64406;50.024;14.492;2024-02-14T02:22:04;98416.44;;;0.87;97.11
75788;BME280;64406;50.024;14.492;2024-02-14T02:24:30;98422.72;;;0.99;96.62
75788;BME280;64406;50.024;14.492;2024-02-14T02:26:56;98419.44;;;0.97;96.44
75788;BME280;64406;50.024;14.492;2024-02-14T02:29:22;98423.34;;;0.95;96.86
75788;BME280;64406;50.024;14.492;2024-02-14T02:31:48;98420.47;;;0.96;96.70
75788;BME280;64406;50.024;14.492;2024-02-14T02:34:13;98422.31;;;0.96;96.70
75788;BME280;64406;50.024;14.492;2024-02-14T02:36:40;98423.75;;;0.92;96.80
75788;BME280;64406;50.024;14.492;2024-02-14T02:39:06;98416.38;;;1.00;96.56
75788;BME280;64406;50.024;14.492;2024-02-14T02:41:33;98423.31;;;1.01;96.78
75788;BME280;64406;50.024;14.492;2024-02-14T02:43:58;98418.03;;;0.95;96.42
75788;BME280;64406;50.024;14.492;2024-02-14T02:46:24;98409.69;;;0.91;97.01
75788;BME280;64406;50.024;14.492;2024-02-14T02:48:51;98413.78;;;0.94;97.13
75788;BME280;64406;50.024;14.492;2024-02-14T02:51:20;98413.59;;;0.89;97.29
75788;BME280;64406;50.024;14.492;2024-02-14T02:53:47;98410.47;;;0.98;97.19
75788;BME280;64406;50.024;14.492;2024-02-14T02:56:13;98413.91;;;0.99;96.79
75788;BME280;64406;50.024;14.492;2024-02-14T02:58:40;98420.66;;;1.01;96.84
75788;BME280;64406;50.024;14.492;2024-02-14T03:01:09;98416.78;;;0.97;97.11
75788;BME280;64406;50.024;14.492;2024-02-14T03:03:37;98424.16;;;0.95;97.01
75788;BME280;64406;50.024;14.492;2024-02-14T03:06:04;98431.91;;;0.97;96.94
75788;BME280;64406;50.024;14.492;2024-02-14T03:08:30;98425.03;;;0.82;97.47
75788;BME280;64406;50.024;14.492;2024-02-14T03:10:56;98443.03;;;0.74;97.84
75788;BME280;64406;50.024;14.492;2024-02-14T03:13:25;98422.00;;;0.72;98.30
75788;BME280;64406;50.024;14.492;2024-02-14T03:15:52;98429.00;;;0.60;98.81
75788;BME280;64406;50.024;14.492;2024-02-14T03:18:18;98428.16;;;0.66;98.89
75788;BME280;64406;50.024;14.492;2024-02-14T03:20:44;98429.78;;;0.67;98.98
75788;BME280;64406;50.024;14.492;2024-02-14T03:23:09;98425.94;;;0.57;99.38
75788;BME280;64406;50.024;14.492;2024-02-14T03:25:35;98426.19;;;0.48;99.65
75788;BME280;64406;50.024;14.492;2024-02-14T03:28:02;98421.09;;;0.47;99.91
75788;BME280;64406;50.024;14.492;2024-02-14T03:30:34;98425.56;;;0.53;100.00
75788;BME280;64406;50.024;14.492;2024-02-14T03:33:00;98425.53;;;0.60;99.93
75788;BME280;64406;50.024;14.492;2024-02-14T03:35:26;98425.88;;;0.76;99.56
75788;BME280;64406;50.024;14.492;2024-02-14T03:37:52;98426.69;;;0.77;98.86
75788;BME280;64406;50.024;14.492;2024-02-14T03:40:19;98429.53;;;0.82;98.59
75788;BME280;64406;50.024;14.492;2024-02-14T03:42:47;98430.56;;;0.81;98.54
75788;BME280;64406;50.024;14.492;2024-02-14T03:45:13;98426.50;;;0.72;98.58
75788;BME280;64406;50.024;14.492;2024-02-14T03:47:40;98432.03;;;0.64;99.04
75788;BME280;64406;50.024;14.492;2024-02-14T03:50:10;98429.84;;;0.54;99.45
75788;BME280;64406;50.024;14.492;2024-02-14T03:52:35;98419.66;;;0.44;99.99
75788;BME280;64406;50.024;14.492;2024-02-14T03:55:01;98428.28;;;0.33;100.00
75788;BME280;64406;50.024;14.492;2024-02-14T03:57:27;98431.75;;;0.34;100.00
75788;BME280;64406;50.024;14.492;2024-02-14T04:00:00;98421.31;;;0.39;100.00
75788;BME280;64406;50.024;14.492;2024-02-14T04:02:29;98419.91;;;0.36;100.00
75788;BME280;64406;50.024;14.492;2024-02-14T04:04:55;98414.41;;;0.24;100.00
75788;BME280;64406;50.024;14.492;2024-02-14T04:07:20;98428.28;;;0.33;100.00
75788;BME280;64406;50.024;14.492;2024-02-14T04:09:47;98424.81;;;0.26;100.00
75788;BME280;64406;50.024;14.492;2024-02-14T04:12:13;98424.81;;;0.19;100.00
75788;BME280;64406;50.024;14.492;2024-02-14T04:14:39;98417.91;;;0.18;100.00
75788;BME280;64406;50.024;14.492;2024-02-14T04:17:05;98416.47;;;0.22;100.00
75788;BME280;64406;50.024;14.492;2024-02-14T04:19:33;98413.81;;;0.22;100.00
75788;BME280;64406;50.024;14.492;2024-02-14T04:21:58;98417.50;;;0.21;100.00
75788;BME280;64406;50.024;14.492;2024-02-14T04:24:24;98406.88;;;0.28;100.00
75788;BME280;64406;50.024;14.492;2024-02-14T04:26:49;98409.09;;;0.38;100.00
75788;BME280;64406;50.024;14.492;2024-02-14T04:29:15;98411.94;;;0.43;100.00
75788;BME280;64406;50.024;14.492;2024-02-14T04:31:41;98406.59;;;0.49;100.00
75788;BME280;64406;50.024;14.492;2024-02-14T04:34:08;98411.91;;;0.49;100.00
75788;BME280;64406;50.024;14.492;2024-02-14T04:36:35;98413.91;;;0.61;100.00
75788;BME280;64406;50.024;14.492;2024-02-14T04:39:01;98401.00;;;0.71;100.00
75788;BME280;64406;50.024;14.492;2024-02-14T04:41:26;98409.19;;;0.69;99.75
75788;BME280;64406;50.024;14.492;2024-02-14T04:43:52;98408.56;;;0.74;99.26
75788;BME280;64406;50.024;14.492;2024-02-14T04:46:17;98402.44;;;0.73;99.67
75788;BME280;64406;50.024;14.492;2024-02-14T04:48:43;98399.09;;;0.85;98.90
75788;BME280;64406;50.024;14.492;2024-02-14T04:51:08;98402.78;;;0.84;98.63
75788;BME280;64406;50.024;14.492;2024-02-14T04:53:34;98411.38;;;0.79;98.63
75788;BME280;64406;50.024;14.492;2024-02-14T04:56:00;98413.44;;;0.77;99.05
75788;BME280;64406;50.024;14.492;2024-02-14T04:58:26;98403.00;;;0.82;98.63
75788;BME280;64406;50.024;14.492;2024-02-14T05:00:52;98401.56;;;0.86;98.62
75788;BME280;64406;50.024;14.492;2024-02-14T05:03:19;98405.84;;;0.87;98.59
75788;BME280;64406;50.024;14.492;2024-02-14T05:05:44;98404.81;;;0.88;98.50
75788;BME280;64406;50.024;14.492;2024-02-14T05:08:10;98406.41;;;0.96;98.38
75788;BME280;64406;50.024;14.492;2024-02-14T05:10:35;98403.97;;;0.94;98.04
75788;BME280;64406;50.024;14.492;2024-02-14T05:13:01;98404.19;;;0.93;98.58
75788;BME280;64406;50.024;14.492;2024-02-14T05:15:27;98411.94;;;0.94;98.17
75788;BME280;64406;50.024;14.492;2024-02-14T05:17:52;98401.34;;;0.88;98.52
75788;BME280;64406;50.024;14.492;2024-02-14T05:20:18;98403.81;;;0.82;98.98
75788;BME280;64406;50.024;14.492;2024-02-14T05:22:44;98418.09;;;0.81;99.10
75788;BME280;64406;50.024;14.492;2024-02-14T05:25:09;98414.44;;;0.82;99.01
75788;BME280;64406;50.024;14.492;2024-02-14T05:27:35;98411.16;;;0.87;98.81
75788;BME280;64406;50.024;14.492;2024-02-14T05:30:05;98414.22;;;0.84;98.94
75788;BME280;64406;50.024;14.492;2024-02-14T05:32:34;98400.75;;;0.79;99.19
75788;BME280;64406;50.024;14.492;2024-02-14T05:35:00;98402.56;;;0.85;98.96
75788;BME280;64406;50.024;14.492;2024-02-14T05:37:26;98405.59;;;0.95;98.23
75788;BME280;64406;50.024;14.492;2024-02-14T05:39:54;98410.63;;;1.03;98.28
75788;BME280;64406;50.024;14.492;2024-02-14T05:42:20;98414.88;;;1.11;97.94
75788;BME280;64406;50.024;14.492;2024-02-14T05:44:47;98410.78;;;1.15;97.86
75788;BME280;64406;50.024;14.492;2024-02-14T05:47:13;98415.41;;;1.26;97.14
75788;BME280;64406;50.024;14.492;2024-02-14T05:49:41;98418.84;;;1.33;96.71
75788;BME280;64406;50.024;14.492;2024-02-14T05:52:07;98413.13;;;1.30;96.40
75788;BME280;64406;50.024;14.492;2024-02-14T05:54:33;98413.94;;;1.30;96.42
75788;BME280;64406;50.024;14.492;2024-02-14T05:56:59;98422.09;;;1.35;96.41
75788;BME280;64406;50.024;14.492;2024-02-14T05:59:25;98414.72;;;1.38;96.60
75788;BME280;64406;50.024;14.492;2024-02-14T06:01:51;98422.53;;;1.32;96.18
75788;BME280;64406;50.024;14.492;2024-02-14T06:04:16;98429.00;;;1.36;96.06
75788;BME280;64406;50.024;14.492;2024-02-14T06:06:42;98418.84;;;1.33;96.17
75788;BME280;64406;50.024;14.492;2024-02-14T06:09:07;98428.78;;;1.38;96.09
75788;BME280;64406;50.024;14.492;2024-02-14T06:11:37;98427.00;;;1.32;96.83
75788;BME280;64406;50.024;14.492;2024-02-14T06:14:07;98422.25;;;1.41;96.06
75788;BME280;64406;50.024;14.492;2024-02-14T06:16:34;98428.97;;;1.43;96.03
75788;BME280;64406;50.024;14.492;2024-02-14T06:19:00;98422.03;;;1.42;95.77
75788;BME280;64406;50.024;14.492;2024-02-14T06:21:26;98423.94;;;1.35;96.12
75788;BME280;64406;50.024;14.492;2024-02-14T06:23:52;98425.41;;;1.24;96.52
75788;BME280;64406;50.024;14.492;2024-02-14T06:26:18;98426.84;;;1.27;96.57
75788;BME280;64406;50.024;14.492;2024-02-14T06:28:44;98424.28;;;1.39;96.14
75788;BME280;64406;50.024;14.492;2024-02-14T06:31:10;98425.19;;;1.32;95.98
75788;BME280;64406;50.024;14.492;2024-02-14T06:33:36;98423.66;;;1.43;95.47
75788;BME280;64406;50.024;14.492;2024-02-14T06:36:02;98430.81;;;1.43;95.36
75788;BME280;64406;50.024;14.492;2024-02-14T06:38:28;98417.97;;;1.40;95.13
75788;BME280;64406;50.024;14.492;2024-02-14T06:40:54;98426.13;;;1.38;95.67
75788;BME280;64406;50.024;14.492;2024-02-14T06:43:19;98430.00;;;1.42;95.55
75788;BME280;64406;50.024;14.492;2024-02-14T06:45:45;98436.34;;;1.41;95.16
75788;BME280;64406;50.024;14.492;2024-02-14T06:48:11;98435.25;;;1.49;95.24
75788;BME280;64406;50.024;14.492;2024-02-14T06:50:37;98429.97;;;1.49;94.91
75788;BME280;64406;50.024;14.492;2024-02-14T06:53:06;98435.81;;;1.57;94.41
75788;BME280;64406;50.024;14.492;2024-02-14T06:55:32;98437.31;;;1.72;94.46
75788;BME280;64406;50.024;14.492;2024-02-14T06:58:01;98437.88;;;1.80;93.27
75788;BME280;64406;50.024;14.492;2024-02-14T07:00:27;98434.78;;;1.83;93.03
75788;BME280;64406;50.024;14.492;2024-02-14T07:02:53;98436.16;;;1.93;92.63
75788;BME280;64406;50.024;14.492;2024-02-14T07:05:19;98433.88;;;1.96;92.56
75788;BME280;64406;50.024;14.492;2024-02-14T07:07:45;98432.47;;;1.94;92.44
75788;BME280;64406;50.024;14.492;2024-02-14T07:10:10;98426.19;;;1.88;93.57
75788;BME280;64406;50.024;14.492;2024-02-14T07:12:36;98433.63;;;1.98;93.06
75788;BME280;64406;50.024;14.492;2024-02-14T07:15:03;98434.63;;;2.03;92.57
75788;BME280;64406;50.024;14.492;2024-02-14T07:17:30;98431.41;;;2.20;92.28
75788;BME280;64406;50.024;14.492;2024-02-14T07:19:55;98437.03;;;2.48;90.83
75788;BME280;64406;50.024;14.492;2024-02-14T07:22:23;98431.50;;;2.50;90.13
75788;BME280;64406;50.024;14.492;2024-02-14T07:24:49;98434.06;;;2.56;89.82
75788;BME280;64406;50.024;14.492;2024-02-14T07:27:15;98433.19;;;2.62;90.07
75788;BME280;64406;50.024;14.492;2024-02-14T07:29:42;98443.09;;;2.55;88.83
75788;BME280;64406;50.024;14.492;2024-02-14T07:32:07;98438.09;;;2.65;89.51
75788;BME280;64406;50.024;14.492;2024-02-14T07:34:33;98435.34;;;2.72;88.27
75788;BME280;64406;50.024;14.492;2024-02-14T07:36:59;98443.25;;;2.79;88.30
75788;BME280;64406;50.024;14.492;2024-02-14T07:39:25;98446.50;;;2.81;88.20
75788;BME280;64406;50.024;14.492;2024-02-14T07:41:51;98438.72;;;2.97;88.27
75788;BME280;64406;50.024;14.492;2024-02-14T07:44:17;98441.00;;;2.94;87.18
75788;BME280;64406;50.024;14.492;2024-02-14T07:46:43;98447.28;;;2.99;87.06
75788;BME280;64406;50.024;14.492;2024-02-14T07:49:09;98445.66;;;2.98;86.88
75788;BME280;64406;50.024;14.492;2024-02-14T07:51:35;98446.72;;;2.97;86.75
75788;BME280;64406;50.024;14.492;2024-02-14T07:54:14;98434.53;;;3.20;86.12
75788;BME280;64406;50.024;14.492;2024-02-14T07:56:42;98431.81;;;3.38;85.04
75788;BME280;64406;50.024;14.492;2024-02-14T07:59:08;98437.19;;;3.50;84.41
75788;BME280;64406;50.024;14.492;2024-02-14T08:01:34;98435.34;;;3.50;83.80
75788;BME280;64406;50.024;14.492;2024-02-14T08:04:00;98441.00;;;3.54;84.71
75788;BME280;64406;50.024;14.492;2024-02-14T08:06:25;98435.44;;;3.55;83.89
75788;BME280;64406;50.024;14.492;2024-02-14T08:08:51;98437.28;;;3.55;84.00
75788;BME280;64406;50.024;14.492;2024-02-14T08:11:22;98434.88;;;3.53;84.36
75788;BME280;64406;50.024;14.492;2024-02-14T08:13:48;98440.66;;;3.50;84.23
75788;BME280;64406;50.024;14.492;2024-02-14T08:16:13;98431.84;;;3.50;84.93
75788;BME280;64406;50.024;14.492;2024-02-14T08:18:39;98438.50;;;3.71;83.88
75788;BME280;64406;50.024;14.492;2024-02-14T08:21:06;98437.34;;;3.78;83.29
75788;BME280;64406;50.024;14.492;2024-02-14T08:23:32;98438.38;;;3.89;83.13
75788;BME280;64406;50.024;14.492;2024-02-14T08:25:59;98431.22;;;3.90;82.54
75788;BME280;64406;50.024;14.492;2024-02-14T08:28:25;98434.59;;;4.08;82.81
75788;BME280;64406;50.024;14.492;2024-02-14T08:30:50;98435.63;;;4.07;83.26
75788;BME280;64406;50.024;14.492;2024-02-14T08:33:16;98428.00;;;4.11;82.21
75788;BME280;64406;50.024;14.492;2024-02-14T08:35:42;98430.16;;;4.02;82.09
75788;BME280;64406;50.024;14.492;2024-02-14T08:38:08;98418.69;;;4.02;81.95
75788;BME280;64406;50.024;14.492;2024-02-14T08:40:34;98414.19;;;4.02;81.78
75788;BME280;64406;50.024;14.492;2024-02-14T08:43:00;98418.00;;;3.95;81.59
75788;BME280;64406;50.024;14.492;2024-02-14T08:45:26;98412.09;;;3.93;81.43
75788;BME280;64406;50.024;14.492;2024-02-14T08:47:55;98412.69;;;3.95;81.65
75788;BME280;64406;50.024;14.492;2024-02-14T08:50:20;98413.97;;;4.04;82.14
75788;BME280;64406;50.024;14.492;2024-02-14T08:52:46;98416.50;;;3.99;82.17
75788;BME280;64406;50.024;14.492;2024-02-14T08:55:12;98412.22;;;4.21;81.42
75788;BME280;64406;50.024;14.492;2024-02-14T08:57:42;98408.75;;;4.21;80.74
75788;BME280;64406;50.024;14.492;2024-02-14T09:00:09;98403.88;;;4.29;80.57
75788;BME280;64406;50.024;14.492;2024-02-14T09:02:36;98405.56;;;4.47;80.14
75788;BME280;64406;50.024;14.492;2024-02-14T09:05:03;98410.09;;;4.58;79.85
75788;BME280;64406;50.024;14.492;2024-02-14T09:07:31;98408.47;;;4.57;79.42
75788;BME280;64406;50.024;14.492;2024-02-14T09:09:58;98407.59;;;4.80;79.06
75788;BME280;64406;50.024;14.492;2024-02-14T09:12:23;98406.31;;;4.83;79.02
75788;BME280;64406;50.024;14.492;2024-02-14T09:14:49;98414.50;;;4.93;78.58
75788;BME280;64406;50.024;14.492;2024-02-14T09:17:15;98411.56;;;5.06;78.49
75788;BME280;64406;50.024;14.492;2024-02-14T09:19:41;98410.50;;;5.07;77.71
75788;BME280;64406;50.024;14.492;2024-02-14T09:22:06;98414.97;;;5.30;77.26
75788;BME280;64406;50.024;14.492;2024-02-14T09:24:32;98401.19;;;5.22;77.01
75788;BME280;64406;50.024;14.492;2024-02-14T09:26:58;98404.69;;;5.39;76.85
75788;BME280;64406;50.024;14.492;2024-02-14T09:29:24;98413.41;;;5.34;76.34
75788;BME280;64406;50.024;14.492;2024-02-14T09:31:53;98409.38;;;5.32;76.53
75788;BME280;64406;50.024;14.492;2024-02-14T09:34:18;98418.59;;;5.41;76.72
75788;BME280;64406;50.024;14.492;2024-02-14T09:36:47;98417.72;;;5.35;76.97
75788;BME280;64406;50.024;14.492;2024-02-14T09:39:15;98414.81;;;5.37;76.52
75788;BME280;64406;50.024;14.492;2024-02-14T09:41:44;98414.03;;;5.70;76.05
75788;BME280;64406;50.024;14.492;2024-02-14T09:44:13;98414.28;;;5.68;76.20
75788;BME280;64406;50.024;14.492;2024-02-14T09:46:39;98410.94;;;5.78;75.62
75788;BME280;64406;50.024;14.492;2024-02-14T09:49:06;98404.25;;;5.76;75.44
75788;BME280;64406;50.024;14.492;2024-02-14T09:51:32;98411.84;;;5.67;75.34
75788;BME280;64406;50.024;14.492;2024-02-14T09:54:00;98410.47;;;5.64;76.04
75788;BME280;64406;50.024;14.492;2024-02-14T09:56:27;98410.88;;;5.56;76.81
75788;BME280;64406;50.024;14.492;2024-02-14T09:58:53;98407.88;;;5.69;77.40
75788;BME280;64406;50.024;14.492;2024-02-14T10:01:24;98399.84;;;5.86;76.40
75788;BME280;64406;50.024;14.492;2024-02-14T10:03:50;98407.50;;;5.94;76.03
75788;BME280;64406;50.024;14.492;2024-02-14T10:06:17;98405.53;;;5.90;75.77
75788;BME280;64406;50.024;14.492;2024-02-14T10:08:44;98401.72;;;5.69;76.91
75788;BME280;64406;50.024;14.492;2024-02-14T10:11:09;98405.94;;;5.82;77.03
75788;BME280;64406;50.024;14.492;2024-02-14T10:13:36;98406.34;;;5.90;76.81
75788;BME280;64406;50.024;14.492;2024-02-14T10:16:02;98412.00;;;5.77;75.43
75788;BME280;64406;50.024;14.492;2024-02-14T10:18:28;98413.94;;;5.65;75.84
75788;BME280;64406;50.024;14.492;2024-02-14T10:20:55;98410.66;;;5.75;75.46
75788;BME280;64406;50.024;14.492;2024-02-14T10:23:21;98409.34;;;5.94;74.59
75788;BME280;64406;50.024;14.492;2024-02-14T10:25:53;98408.28;;;6.12;73.65
75788;BME280;64406;50.024;14.492;2024-02-14T10:28:20;98410.03;;;6.40;72.83
75788;BME280;64406;50.024;14.492;2024-02-14T10:30:47;98406.03;;;6.81;72.85
75788;BME280;64406;50.024;14.492;2024-02-14T10:33:18;98401.56;;;7.14;71.02
75788;BME280;64406;50.024;14.492;2024-02-14T10:35:49;98405.31;;;7.40;70.32
75788;BME280;64406;50.024;14.492;2024-02-14T10:38:17;98400.38;;;7.58;69.01
75788;BME280;64406;50.024;14.492;2024-02-14T10:40:47;98408.59;;;7.79;68.23
75788;BME280;64406;50.024;14.492;2024-02-14T10:43:13;98406.97;;;7.78;67.69
75788;BME280;64406;50.024;14.492;2024-02-14T10:45:49;98404.34;;;7.83;66.92
75788;BME280;64406;50.024;14.492;2024-02-14T10:48:15;98399.56;;;7.90;66.67
75788;BME280;64406;50.024;14.492;2024-02-14T10:50:42;98396.28;;;7.83;66.61
75788;BME280;64406;50.024;14.492;2024-02-14T10:53:13;98402.84;;;7.97;66.36
75788;BME280;64406;50.024;14.492;2024-02-14T10:55:45;98398.06;;;8.04;66.76
75788;BME280;64406;50.024;14.492;2024-02-14T10:58:11;98388.69;;;8.07;66.31
75788;BME280;64406;50.024;14.492;2024-02-14T11:00:40;98390.91;;;8.15;66.87
75788;BME280;64406;50.024;14.492;2024-02-14T11:03:07;98387.28;;;8.36;66.39
75788;BME280;64406;50.024;14.492;2024-02-14T11:05:45;98389.19;;;8.04;66.52
75788;BME280;64406;50.024;14.492;2024-02-14T11:08:18;98390.28;;;8.03;66.65
75788;BME280;64406;50.024;14.492;2024-02-14T11:10:53;98389.09;;;8.26;66.88
75788;BME280;64406;50.024;14.492;2024-02-14T11:13:19;98375.16;;;8.29;66.33
75788;BME280;64406;50.024;14.492;2024-02-14T11:15:45;98375.38;;;8.22;66.92
75788;BME280;64406;50.024;14.492;2024-02-14T11:18:12;98377.72;;;8.56;65.70
75788;BME280;64406;50.024;14.492;2024-02-14T11:20:38;98366.72;;;8.57;66.61
75788;BME280;64406;50.024;14.492;2024-02-14T11:23:07;98366.38;;;8.43;66.53
75788;BME280;64406;50.024;14.492;2024-02-14T11:25:37;98358.16;;;8.60;66.11
75788;BME280;64406;50.024;14.492;2024-02-14T11:28:16;98361.91;;;8.59;65.53
75788;BME280;64406;50.024;14.492;2024-02-14T11:30:43;98361.91;;;8.64;65.95
75788;BME280;64406;50.024;14.492;2024-02-14T11:33:16;98358.44;;;8.69;66.66
75788;BME280;64406;50.024;14.492;2024-02-14T11:35:44;98360.47;;;9.14;66.23
75788;BME280;64406;50.024;14.492;2024-02-14T11:38:10;98356.88;;;8.83;65.94
75788;BME280;64406;50.024;14.492;2024-02-14T11:40:37;98363.66;;;9.01;65.67
75788;BME280;64406;50.024;14.492;2024-02-14T11:43:14;98345.16;;;9.15;66.22
75788;BME280;64406;50.024;14.492;2024-02-14T11:45:44;98354.03;;;9.20;65.28
75788;BME280;64406;50.024;14.492;2024-02-14T11:48:12;98354.06;;;9.56;65.88
75788;BME280;64406;50.024;14.492;2024-02-14T11:50:39;98347.34;;;9.74;64.42
75788;BME280;64406;50.024;14.492;2024-02-14T11:53:07;98348.94;;;9.54;64.13
75788;BME280;64406;50.024;14.492;2024-02-14T11:55:37;98358.34;;;9.62;63.38
75788;BME280;64406;50.024;14.492;2024-02-14T11:58:14;98344.38;;;9.40;63.71
75788;BME280;64406;50.024;14.492;2024-02-14T12:00:42;98342.50;;;9.61;63.24
75788;BME280;64406;50.024;14.492;2024-02-14T12:03:15;98355.94;;;9.45;64.15
75788;BME280;64406;50.024;14.492;2024-02-14T12:05:42;98345.16;;;9.35;64.52
75788;BME280;64406;50.024;14.492;2024-02-14T12:08:11;98340.63;;;9.41;63.87
75788;BME280;64406;50.024;14.492;2024-02-14T12:10:37;98340.91;;;9.65;64.08
75788;BME280;64406;50.024;14.492;2024-02-14T12:13:09;98324.97;;;9.84;62.55
75788;BME280;64406;50.024;14.492;2024-02-14T12:15:40;98315.03;;;9.94;63.07
75788;BME280;64406;50.024;14.492;2024-02-14T12:18:08;98316.06;;;10.08;62.99
75788;BME280;64406;50.024;14.492;2024-02-14T12:20:35;98306.59;;;10.21;62.79
75788;BME280;64406;50.024;14.492;2024-02-14T12:23:02;98295.09;;;9.95;63.94
75788;BME280;64406;50.024;14.492;2024-02-14T12:25:29;98322.03;;;9.70;63.52
75788;BME280;64406;50.024;14.492;2024-02-14T12:27:58;98308.88;;;9.53;64.89
75788;BME280;64406;50.024;14.492;2024-02-14T12:30:43;98306.72;;;9.55;66.10
75788;BME280;64406;50.024;14.492;2024-02-14T12:33:13;98315.63;;;9.45;65.88
75788;BME280;64406;50.024;14.492;2024-02-14T12:35:46;98311.31;;;9.44;65.66
75788;BME280;64406;50.024;14.492;2024-02-14T12:38:13;98319.38;;;9.60;65.29
75788;BME280;64406;50.024;14.492;2024-02-14T12:40:40;98315.34;;;9.52;65.15
75788;BME280;64406;50.024;14.492;2024-02-14T12:43:13;98319.63;;;9.48;65.46
75788;BME280;64406;50.024;14.492;2024-02-14T12:45:40;98319.88;;;9.82;64.99
75788;BME280;64406;50.024;14.492;2024-02-14T12:48:07;98325.78;;;10.04;64.36
75788;BME280;64406;50.024;14.492;2024-02-14T12:50:36;98336.84;;;9.93;64.48
75788;BME280;64406;50.024;14.492;2024-02-14T12:53:06;98337.38;;;9.85;64.83
75788;BME280;64406;50.024;14.492;2024-02-14T12:55:33;98339.00;;;9.75;65.14